Time;durP1;ratioP1;P1;durP2;ratioP2;P2;SDS_P1;SDS_P2;PMS_P1;PMS_P2;Temp;Humidity;BMP_temperature;BMP_pressure;BME280_temperature;BME280_humidity;BME280_pressure;Samples;Min_cycle;Max_cycle;Signal;HPM_P1;HPM_P2
2023/07/14 00:00:09;;;;;;;3.80;3.50;;;;;;;17.56;90.86;101690.75;6050001;29;20249;-66
2023/07/14 00:03:33;;;;;;;4.45;3.58;;;;;;;17.48;90.78;101698.03;6054924;29;20244;-66
2023/07/14 00:06:54;;;;;;;6.05;3.72;;;;;;;17.42;90.67;101699.50;6044559;29;20252;-66
2023/07/14 00:10:19;;;;;;;3.85;3.17;;;;;;;17.58;90.70;101695.19;6060679;29;20241;-66
2023/07/14 00:13:40;;;;;;;4.35;3.95;;;;;;;17.78;90.02;101689.34;6056568;29;20324;-66
2023/07/14 00:17:01;;;;;;;5.38;4.95;;;;;;;17.88;89.15;101687.34;6048744;29;20240;-66
2023/07/14 00:20:27;;;;;;;3.63;3.33;;;;;;;17.83;88.65;101684.28;6051807;29;20237;-68
2023/07/14 00:23:48;;;;;;;3.35;3.13;;;;;;;17.56;89.25;101682.56;6049692;29;20238;-66
2023/07/14 00:27:17;;;;;;;4.28;3.92;;;;;;;17.51;89.13;101684.09;6043701;29;20237;-66
2023/07/14 00:30:39;;;;;;;4.57;3.75;;;;;;;17.43;89.16;101678.56;6063537;29;20232;-67
2023/07/14 00:34:01;;;;;;;3.28;2.97;;;;;;;17.46;89.54;101689.97;6061450;29;20233;-66
2023/07/14 00:37:22;;;;;;;4.68;3.30;;;;;;;17.45;89.63;101684.69;6062268;29;20240;-66
2023/07/14 00:40:45;;;;;;;4.45;3.20;;;;;;;17.44;89.20;101682.97;6050815;29;20288;-66
2023/07/14 00:44:13;;;;;;;2.60;2.40;;;;;;;17.33;89.37;101681.41;6050548;29;20311;-66
2023/07/14 00:47:35;;;;;;;3.28;2.97;;;;;;;17.54;88.59;101678.31;6066295;29;20942;-66
2023/07/14 00:51:03;;;;;;;4.28;3.47;;;;;;;17.65;87.92;101680.75;6046074;29;20246;-65
2023/07/14 00:54:28;;;;;;;4.05;3.22;;;;;;;17.58;87.42;101688.72;6064346;29;20225;-65
2023/07/14 00:57:50;;;;;;;4.15;3.72;;;;;;;17.87;86.49;101679.34;6058337;29;20260;-66
2023/07/14 01:01:21;;;;;;;2.95;2.67;;;;;;;17.64;85.87;101687.25;6056635;29;20325;-66
2023/07/14 01:04:45;;;;;;;3.60;2.90;;;;;;;17.84;85.74;101683.25;6042203;29;20611;-67
2023/07/14 01:08:06;;;;;;;3.00;2.80;;;;;;;17.79;85.56;101677.44;6060961;29;20241;-66
2023/07/14 01:11:32;;;;;;;3.83;3.30;;;;;;;17.80;85.18;101675.53;6065007;29;20322;-65
2023/07/14 01:14:57;;;;;;;3.03;2.72;;;;;;;17.53;85.03;101668.41;6062051;29;20245;-66
2023/07/14 01:18:20;;;;;;;4.63;4.13;;;;;;;17.75;85.18;101673.31;6056539;29;20233;-66
2023/07/14 01:21:42;;;;;;;3.53;2.88;;;;;;;17.87;84.89;101668.41;6043653;29;20672;-67
2023/07/14 01:25:13;;;;;;;3.67;3.03;;;;;;;17.63;84.45;101663.69;6068220;29;20244;-66
2023/07/14 01:28:35;;;;;;;3.15;2.95;;;;;;;17.46;84.72;101670.03;6065871;29;20233;-66
2023/07/14 01:31:57;;;;;;;5.55;4.10;;;;;;;17.60;84.86;101664.03;6065367;29;20818;-67
2023/07/14 01:35:21;;;;;;;5.30;2.78;;;;;;;17.61;84.71;101662.16;6071061;29;20233;-66
2023/07/14 01:38:43;;;;;;;5.07;3.17;;;;;;;17.67;84.99;101666.97;6063768;29;21909;-66
2023/07/14 01:42:05;;;;;;;4.40;3.92;;;;;;;17.58;85.12;101658.72;6062350;29;20240;-66
2023/07/14 01:45:35;;;;;;;4.78;2.88;;;;;;;17.76;84.96;101655.06;6056589;29;20244;-66
2023/07/14 01:49:13;;;;;;;3.90;3.58;;;;;;;17.65;84.95;101658.09;6045669;29;20236;-66
2023/07/14 01:52:34;;;;;;;2.80;2.45;;;;;;;17.46;85.10;101662.72;6050071;29;20269;-66
2023/07/14 01:55:58;;;;;;;3.45;3.15;;;;;;;17.62;85.20;101666.59;6049862;29;20796;-66
2023/07/14 01:59:23;;;;;;;3.55;3.17;;;;;;;17.38;85.47;101661.81;6047712;29;20848;-66
2023/07/14 02:02:47;;;;;;;2.88;2.38;;;;;;;17.24;85.92;101666.00;6051659;29;20313;-66
2023/07/14 02:06:08;;;;;;;3.25;2.63;;;;;;;17.30;86.16;101668.06;6054305;29;20241;-65
2023/07/14 02:09:30;;;;;;;2.80;2.33;;;;;;;17.16;86.70;101668.66;6060131;29;20245;-66
2023/07/14 02:12:51;;;;;;;3.40;3.08;;;;;;;16.88;87.56;101674.38;6048611;29;20237;-66
2023/07/14 02:16:15;;;;;;;2.50;2.30;;;;;;;17.14;88.07;101664.38;6062581;29;20233;-66
2023/07/14 02:19:37;;;;;;;2.40;2.20;;;;;;;17.06;87.98;101661.59;6054297;29;20238;-66
2023/07/14 02:23:01;;;;;;;6.47;3.13;;;;;;;16.98;88.56;101659.66;6048433;29;20232;-65
2023/07/14 02:26:28;;;;;;;3.78;2.63;;;;;;;16.84;88.96;101668.41;6058975;29;20229;-66
2023/07/14 02:29:49;;;;;;;2.95;2.75;;;;;;;16.97;89.10;101659.81;6044613;29;20565;-65
2023/07/14 02:33:16;;;;;;;2.95;2.65;;;;;;;16.93;89.10;101659.28;6056556;29;20532;-66
2023/07/14 02:36:43;;;;;;;5.32;2.97;;;;;;;16.58;89.40;101662.03;6037507;29;20241;-66
2023/07/14 02:40:04;;;;;;;3.33;2.28;;;;;;;16.56;90.28;101672.22;6029613;29;21054;-66
2023/07/14 02:43:25;;;;;;;2.92;2.72;;;;;;;16.76;90.03;101661.03;6065878;29;20241;-65
2023/07/14 02:46:51;;;;;;;3.78;2.67;;;;;;;16.75;90.16;101664.75;6042765;29;20591;-66
2023/07/14 02:50:12;;;;;;;5.47;3.17;;;;;;;17.02;89.91;101657.47;6055062;29;20275;-66
2023/07/14 02:53:34;;;;;;;4.90;2.83;;;;;;;16.98;89.88;101656.94;6047076;29;20236;-66
2023/07/14 02:56:55;;;;;;;2.92;2.63;;;;;;;16.93;89.59;101653.84;6050448;29;20230;-66
2023/07/14 03:00:17;;;;;;;4.32;2.83;;;;;;;16.93;89.59;101666.59;6053386;29;20281;-66
2023/07/14 03:03:39;;;;;;;6.85;2.65;;;;;;;16.94;89.59;101657.44;6058139;29;20247;-66
2023/07/14 03:07:00;;;;;;;4.10;3.30;;;;;;;16.86;89.80;101662.78;6040023;29;20465;-66
2023/07/14 03:10:22;;;;;;;2.92;2.70;;;;;;;16.72;89.90;101670.53;6066217;29;20240;-66
2023/07/14 03:13:43;;;;;;;3.58;3.25;;;;;;;16.63;90.01;101668.72;6065706;29;20579;-66
2023/07/14 03:17:06;;;;;;;6.93;3.42;;;;;;;16.43;91.18;101666.28;6058909;29;20264;-66
2023/07/14 03:20:27;;;;;;;4.73;3.03;;;;;;;16.71;91.18;101662.47;6056437;29;21879;-66
2023/07/14 03:23:47;;;;;;;3.15;2.90;;;;;;;16.68;91.11;101666.41;6060829;29;20303;-67
2023/07/14 03:27:10;;;;;;;2.92;2.72;;;;;;;16.81;91.13;101662.41;6047411;29;20777;-66
2023/07/14 03:30:38;;;;;;;4.40;3.33;;;;;;;16.69;91.03;101659.06;6062265;29;20551;-66
2023/07/14 03:34:00;;;;;;;4.88;3.75;;;;;;;16.57;91.19;101661.19;6054324;29;20236;-66
2023/07/14 03:37:20;;;;;;;3.25;2.90;;;;;;;16.61;91.64;101662.56;6035949;29;20524;-66
2023/07/14 03:40:41;;;;;;;5.65;3.83;;;;;;;16.42;92.20;101657.25;6031909;29;20257;-66
2023/07/14 03:44:04;;;;;;;7.25;6.50;;;;;;;16.60;92.62;101654.56;6064509;29;20241;-67
2023/07/14 03:47:26;;;;;;;7.32;6.43;;;;;;;16.71;92.59;101657.03;6052159;29;20571;-67
2023/07/14 03:50:47;;;;;;;5.53;4.97;;;;;;;16.84;92.10;101656.63;6053743;29;20242;-66
2023/07/14 03:54:08;;;;;;;8.20;7.43;;;;;;;16.86;91.76;101660.06;6058132;29;20618;-66
2023/07/14 03:57:29;;;;;;;8.63;4.82;;;;;;;16.64;92.11;101667.72;6055240;29;22027;-66
2023/07/14 04:00:51;;;;;;;4.15;3.75;;;;;;;16.59;92.19;101670.03;6047552;29;20541;-66
2023/07/14 04:04:12;;;;;;;5.70;3.83;;;;;;;16.66;92.51;101668.41;6044027;29;20262;-66
2023/07/14 04:07:33;;;;;;;4.63;4.22;;;;;;;16.68;92.37;101663.69;6052607;29;20232;-66
2023/07/14 04:10:53;;;;;;;4.90;4.20;;;;;;;16.96;92.33;101669.84;6052350;29;20232;-66
2023/07/14 04:14:15;;;;;;;4.68;3.60;;;;;;;16.66;92.40;101665.69;6055906;29;20343;-66
2023/07/14 04:17:39;;;;;;;4.13;3.72;;;;;;;17.01;92.68;101664.78;6047304;29;20241;-66
2023/07/14 04:21:01;;;;;;;4.95;4.25;;;;;;;17.22;91.88;101664.44;6058382;29;20243;-67
2023/07/14 04:24:21;;;;;;;5.10;4.70;;;;;;;17.27;91.50;101667.56;6032541;29;20233;-66
2023/07/14 04:27:42;;;;;;;6.45;4.60;;;;;;;16.99;90.96;101664.09;6048235;29;20224;-67
2023/07/14 04:31:03;;;;;;;5.50;5.00;;;;;;;17.24;91.05;101666.00;6040809;29;20238;-67
2023/07/14 04:34:27;;;;;;;6.53;4.57;;;;;;;17.14;91.19;101667.09;6054014;29;20258;-66
2023/07/14 04:37:49;;;;;;;8.25;5.63;;;;;;;17.43;90.87;101673.09;6045584;29;20252;-66
2023/07/14 04:41:13;;;;;;;8.55;4.38;;;;;;;17.36;90.90;101672.03;6053068;29;20240;-66
2023/07/14 04:44:34;;;;;;;8.18;6.97;;;;;;;17.55;90.68;101669.09;6055329;29;20261;-66
2023/07/14 04:47:56;;;;;;;8.07;6.32;;;;;;;17.74;90.06;101679.78;6039667;29;20236;-65
2023/07/14 04:51:18;;;;;;;7.90;5.43;;;;;;;17.95;89.14;101674.78;6040555;29;20237;-66
2023/07/14 04:54:40;;;;;;;5.00;4.40;;;;;;;17.84;89.00;101685.09;6054569;29;20233;-67
2023/07/14 04:58:03;;;;;;;5.47;4.50;;;;;;;17.53;89.45;101680.19;6052540;29;20236;-66
2023/07/14 05:01:24;;;;;;;7.25;4.82;;;;;;;17.63;89.67;101669.16;6050122;29;20237;-66
2023/07/14 05:05:12;;;;;;;4.80;4.35;;;;;;;17.91;89.55;101676.13;6036960;29;20229;-66
2023/07/14 05:08:34;;;;;;;4.43;4.13;;;;;;;17.75;89.68;101678.78;6054966;29;20233;-64
2023/07/14 05:11:55;;;;;;;5.10;4.25;;;;;;;18.34;89.29;101666.88;6025699;29;20258;-65
2023/07/14 05:15:16;;;;;;;5.50;3.90;;;;;;;18.51;88.17;101668.66;6042479;29;20237;-66
2023/07/14 05:18:37;;;;;;;5.28;4.18;;;;;;;18.36;87.60;101676.59;6052295;29;20240;-67
2023/07/14 05:21:58;;;;;;;5.22;4.28;;;;;;;18.33;87.77;101667.91;6046629;29;20245;-66
2023/07/14 05:25:21;;;;;;;4.82;4.22;;;;;;;18.72;87.00;101663.56;6065142;29;20237;-67
2023/07/14 05:28:42;;;;;;;7.03;4.03;;;;;;;17.90;87.34;101674.41;6046936;29;20316;-66
2023/07/14 05:32:02;;;;;;;4.57;4.18;;;;;;;18.25;87.89;101668.72;6034742;29;20244;-66
2023/07/14 05:35:24;;;;;;;6.30;4.57;;;;;;;18.59;87.15;101673.25;6064829;29;20256;-65
2023/07/14 05:38:45;;;;;;;5.95;4.30;;;;;;;18.47;86.54;101670.00;6048466;29;20319;-66
2023/07/14 05:42:08;;;;;;;7.32;5.72;;;;;;;18.62;86.17;101676.53;6048354;29;20249;-66
2023/07/14 05:45:28;;;;;;;6.88;5.47;;;;;;;18.87;85.34;101682.84;6042621;29;22526;-67
2023/07/14 05:48:50;;;;;;;5.60;5.00;;;;;;;19.31;84.28;101678.75;6066049;29;20614;-67
2023/07/14 05:52:12;;;;;;;6.10;4.32;;;;;;;18.91;84.00;101673.28;6053688;29;20525;-66
2023/07/14 05:55:32;;;;;;;7.25;4.70;;;;;;;18.47;84.83;101670.00;6053735;29;20237;-67
2023/07/14 05:58:55;;;;;;;6.60;4.45;;;;;;;18.76;85.29;101675.84;6044689;29;20241;-67
2023/07/14 06:02:16;;;;;;;6.75;4.45;;;;;;;19.04;85.19;101671.78;6043610;29;20237;-67
2023/07/14 06:05:37;;;;;;;7.28;6.10;;;;;;;18.60;84.73;101672.25;6052048;29;20237;-67
2023/07/14 06:08:58;;;;;;;5.65;5.07;;;;;;;18.58;85.26;101680.63;6066886;29;20240;-67
2023/07/14 06:12:19;;;;;;;8.80;4.50;;;;;;;19.17;84.90;101672.09;6051023;29;20629;-67
2023/07/14 06:15:46;;;;;;;4.45;3.60;;;;;;;19.28;84.19;101672.75;6047954;29;20242;-65
2023/07/14 06:19:07;;;;;;;6.65;5.60;;;;;;;19.52;83.24;101672.75;6059454;29;20237;-64
2023/07/14 06:22:28;;;;;;;8.55;5.20;;;;;;;19.60;82.59;101667.25;6043860;29;20240;-66
2023/07/14 06:25:49;;;;;;;5.90;5.25;;;;;;;19.20;82.20;101670.03;6062347;29;20237;-66
2023/07/14 06:29:10;;;;;;;7.22;5.85;;;;;;;18.79;82.66;101669.19;6062904;29;20252;-65
2023/07/14 06:32:32;;;;;;;4.88;4.35;;;;;;;19.19;83.14;101665.59;6053277;29;20252;-65
2023/07/14 06:35:55;;;;;;;7.90;5.25;;;;;;;19.14;82.46;101664.25;6057483;29;20233;-67
2023/07/14 06:39:17;;;;;;;6.93;4.40;;;;;;;19.35;81.38;101665.59;6038058;29;20245;-67
2023/07/14 06:42:38;;;;;;;5.13;4.72;;;;;;;19.23;80.66;101667.81;6054965;29;20232;-68
2023/07/14 06:46:00;;;;;;;8.90;4.65;;;;;;;19.24;81.17;101672.25;6058923;29;20241;-67
2023/07/14 06:49:22;;;;;;;6.28;5.68;;;;;;;19.14;80.81;101666.13;6067558;29;20362;-67
2023/07/14 06:52:45;;;;;;;10.57;6.07;;;;;;;19.65;80.54;101673.06;6061234;29;20623;-66
2023/07/14 06:56:07;;;;;;;5.95;5.35;;;;;;;18.94;81.29;101673.78;6064023;29;20257;-67
2023/07/14 06:59:27;;;;;;;6.63;5.97;;;;;;;18.95;81.92;101677.41;6066619;29;20233;-64
2023/07/14 07:02:48;;;;;;;5.47;4.85;;;;;;;18.99;80.84;101679.63;6052717;29;20241;-66
2023/07/14 07:06:11;;;;;;;7.82;4.38;;;;;;;19.22;80.22;101677.03;6065833;29;20619;-66
2023/07/14 07:09:32;;;;;;;4.32;3.78;;;;;;;20.13;78.67;101675.59;6047343;29;20265;-67
2023/07/14 07:12:53;;;;;;;5.95;3.85;;;;;;;20.35;76.39;101674.84;6048858;29;20240;-65
2023/07/14 07:16:13;;;;;;;4.20;3.80;;;;;;;20.62;75.22;101667.97;6059109;29;20643;-65
2023/07/14 07:19:34;;;;;;;4.68;3.72;;;;;;;20.20;74.44;101662.94;6063155;29;20560;-65
2023/07/14 07:22:56;;;;;;;6.85;4.90;;;;;;;20.13;75.15;101658.34;6058089;29;20224;-65
2023/07/14 07:26:17;;;;;;;5.68;3.45;;;;;;;20.46;73.63;101668.94;6058701;29;20332;-65
2023/07/14 07:29:41;;;;;;;4.13;3.22;;;;;;;20.98;72.39;101655.38;6058428;29;20355;-66
2023/07/14 07:33:03;;;;;;;4.35;3.40;;;;;;;20.32;71.85;101652.41;6057494;29;20232;-65
2023/07/14 07:36:27;;;;;;;3.88;3.22;;;;;;;21.15;70.77;101645.13;6059597;29;20707;-65
2023/07/14 07:39:53;;;;;;;4.13;3.08;;;;;;;20.12;69.91;101643.78;6039481;29;20236;-67
2023/07/14 07:43:14;;;;;;;4.10;3.70;;;;;;;20.13;71.27;101655.59;6060172;29;20229;-65
2023/07/14 07:46:35;;;;;;;6.63;3.78;;;;;;;20.35;71.24;101655.66;6057398;29;20312;-65
2023/07/14 07:49:56;;;;;;;6.28;3.90;;;;;;;20.08;72.26;101655.25;6054710;29;20551;-64
2023/07/14 07:53:17;;;;;;;5.47;3.65;;;;;;;19.90;73.14;101656.38;6059426;29;20566;-64
2023/07/14 07:56:43;;;;;;;12.60;6.25;;;;;;;19.66;74.12;101650.13;6053111;29;20237;-64
2023/07/14 08:00:05;;;;;;;3.80;3.30;;;;;;;20.27;72.50;101650.25;6056995;29;21096;-67
2023/07/14 08:03:33;;;;;;;4.05;2.83;;;;;;;21.05;71.42;101644.53;6059695;29;20629;-66
2023/07/14 08:06:54;;;;;;;3.58;3.28;;;;;;;21.12;70.48;101640.00;6043700;29;20241;-66
2023/07/14 08:10:16;;;;;;;4.75;2.92;;;;;;;21.74;68.38;101640.53;6073766;29;20237;-67
2023/07/14 08:13:38;;;;;;;2.65;2.45;;;;;;;21.31;67.83;101650.44;6065358;29;20262;-67
2023/07/14 08:16:59;;;;;;;4.43;3.00;;;;;;;20.66;68.72;101650.13;6027950;29;20516;-66
2023/07/14 08:20:21;;;;;;;4.40;2.80;;;;;;;20.57;68.77;101643.84;6068448;29;20233;-66
2023/07/14 08:23:41;;;;;;;3.38;2.72;;;;;;;20.41;68.64;101638.50;6065983;29;20614;-66
2023/07/14 08:27:02;;;;;;;4.53;2.88;;;;;;;21.04;68.53;101640.09;6037717;29;20232;-67
2023/07/14 08:30:24;;;;;;;7.55;3.38;;;;;;;21.04;67.77;101640.94;6067788;29;20237;-66
2023/07/14 08:33:45;;;;;;;3.53;3.22;;;;;;;20.87;66.85;101644.84;6056587;29;20276;-67
2023/07/14 08:37:07;;;;;;;3.85;3.55;;;;;;;20.46;68.14;101643.44;6061454;29;20232;-66
2023/07/14 08:40:31;;;;;;;4.22;2.65;;;;;;;20.66;68.04;101641.91;6080260;29;20245;-65
2023/07/14 08:44:10;;;;;;;3.10;2.35;;;;;;;21.01;66.45;101643.16;6067138;29;20597;-66
2023/07/14 08:47:44;;;;;;;3.60;2.15;;;;;;;21.52;65.98;101641.47;6062573;29;20248;-66
2023/07/14 08:51:16;;;;;;;2.03;1.83;;;;;;;21.47;65.38;101639.28;6073826;29;20573;-66
2023/07/14 08:54:44;;;;;;;2.17;1.73;;;;;;;21.24;65.13;101633.88;6064365;29;20237;-67
2023/07/14 08:58:13;;;;;;;4.35;2.33;;;;;;;21.63;65.18;101638.28;6058407;29;20235;-66
2023/07/14 09:01:39;;;;;;;3.13;2.03;;;;;;;22.45;63.62;101624.13;6054448;29;20249;-66
2023/07/14 09:05:04;;;;;;;3.03;2.72;;;;;;;21.55;63.76;101628.22;6067587;29;20232;-66
2023/07/14 09:08:28;;;;;;;2.22;2.03;;;;;;;21.86;63.83;101623.41;6072340;29;20236;-66
2023/07/14 09:12:05;;;;;;;2.60;1.77;;;;;;;22.39;62.05;101627.66;6064865;29;20237;-66
2023/07/14 09:15:27;;;;;;;2.80;1.83;;;;;;;22.24;61.80;101624.09;6081246;29;20245;-67
2023/07/14 09:19:00;;;;;;;2.08;1.92;;;;;;;22.05;61.76;101631.06;6066156;29;20238;-66
2023/07/14 09:22:30;;;;;;;1.40;1.30;;;;;;;22.06;61.67;101621.78;6061156;29;20228;-66
2023/07/14 09:25:57;;;;;;;1.90;1.70;;;;;;;22.30;61.50;101617.00;6074688;29;20217;-67
2023/07/14 09:29:36;;;;;;;8.50;2.58;;;;;;;22.82;60.16;101614.81;6072270;29;20547;-66
2023/07/14 09:33:03;;;;;;;2.15;1.38;;;;;;;22.05;58.61;101624.72;6061802;29;20236;-66
2023/07/14 09:36:24;;;;;;;1.80;1.70;;;;;;;22.50;59.01;101612.53;6072332;29;20327;-66
2023/07/14 09:39:49;;;;;;;4.20;1.77;;;;;;;23.38;57.28;101622.06;6068239;29;20242;-66
2023/07/14 09:43:12;;;;;;;2.05;1.95;;;;;;;23.49;57.67;101612.41;6071699;29;20343;-66
2023/07/14 09:46:38;;;;;;;2.28;2.08;;;;;;;23.86;56.32;101611.09;6061524;29;20229;-67
2023/07/14 09:49:59;;;;;;;9.23;4.03;;;;;;;23.21;56.55;101614.25;6076480;29;20229;-67
2023/07/14 09:53:20;;;;;;;5.35;2.53;;;;;;;22.98;56.74;101607.13;6066104;29;20237;-66
2023/07/14 09:56:45;;;;;;;2.00;1.58;;;;;;;23.26;56.96;101609.84;6069974;29;20398;-66
2023/07/14 10:00:20;;;;;;;3.17;1.70;;;;;;;22.76;57.26;101612.84;6057447;29;20237;-66
2023/07/14 10:03:42;;;;;;;3.17;2.00;;;;;;;23.42;56.24;101601.34;6070539;29;20618;-66
2023/07/14 10:07:32;;;;;;;1.73;1.55;;;;;;;23.17;56.12;101588.22;6039280;29;22006;-67
2023/07/14 10:10:57;;;;;;;4.22;2.20;;;;;;;22.56;56.68;101590.63;6059305;29;20272;-66
2023/07/14 10:14:25;;;;;;;2.70;1.90;;;;;;;22.41;57.34;101595.31;6056668;29;20241;-64
2023/07/14 10:17:46;;;;;;;3.33;2.25;;;;;;;22.56;57.83;101584.28;6063262;29;20239;-65
2023/07/14 10:21:11;;;;;;;1.73;1.52;;;;;;;22.44;58.00;101583.09;6061921;29;20517;-66
2023/07/14 10:24:33;;;;;;;2.55;1.88;;;;;;;21.94;58.91;101582.13;6065575;29;20229;-66
2023/07/14 10:27:59;;;;;;;3.67;2.33;;;;;;;22.12;58.92;101585.31;6054276;29;20644;-66
2023/07/14 10:31:28;;;;;;;2.80;1.85;;;;;;;22.48;58.40;101576.16;6049416;29;20255;-66
2023/07/14 10:34:53;;;;;;;4.22;2.63;;;;;;;22.55;58.85;101574.34;6046663;29;20685;-66
2023/07/14 10:38:20;;;;;;;3.13;2.38;;;;;;;22.32;59.34;101570.94;6058812;29;20232;-66
2023/07/14 10:41:45;;;;;;;1.85;1.55;;;;;;;22.67;58.01;101564.53;6050570;29;20279;-66
2023/07/14 10:45:12;;;;;;;2.22;1.80;;;;;;;23.43;56.12;101558.97;6061617;29;20237;-65
2023/07/14 10:48:42;;;;;;;7.85;2.45;;;;;;;24.15;56.09;101552.94;6064555;29;20318;-66
2023/07/14 10:52:11;;;;;;;7.13;1.98;;;;;;;23.55;57.08;101553.75;6056694;29;20228;-64
2023/07/14 10:55:33;;;;;;;4.53;2.55;;;;;;;23.81;56.61;101545.59;6064110;29;20516;-67
2023/07/14 10:58:58;;;;;;;2.83;2.40;;;;;;;23.58;57.82;101548.69;6060810;29;20233;-66
2023/07/14 11:02:23;;;;;;;6.60;2.70;;;;;;;24.45;56.87;101552.38;6048057;29;20236;-66
2023/07/14 11:05:57;;;;;;;3.88;2.95;;;;;;;24.27;56.74;101548.53;6068987;29;20612;-65
2023/07/14 11:09:18;;;;;;;2.33;1.75;;;;;;;24.43;57.31;101546.22;6071153;29;20264;-69
2023/07/14 11:12:49;;;;;;;3.58;2.55;;;;;;;24.17;57.50;101539.81;6050024;29;20237;-67
2023/07/14 11:16:17;;;;;;;4.15;2.70;;;;;;;23.77;58.72;101544.31;6064272;29;20327;-65
2023/07/14 11:20:00;;;;;;;3.53;2.42;;;;;;;23.15;59.47;101533.38;6043421;29;20533;-68
2023/07/14 11:23:28;;;;;;;2.63;2.17;;;;;;;22.83;60.78;101537.59;6058417;29;20237;-67
2023/07/14 11:27:03;;;;;;;4.93;2.20;;;;;;;22.46;61.54;101535.13;6052073;29;20335;-67
2023/07/14 11:30:29;;;;;;;3.75;2.33;;;;;;;22.61;62.57;101541.41;6063611;29;20240;-67
2023/07/14 11:34:03;;;;;;;2.47;2.28;;;;;;;23.05;62.00;101533.72;6051651;29;20319;-67
2023/07/14 11:37:41;;;;;;;3.55;2.35;;;;;;;23.53;61.26;101537.44;6052397;29;20228;-66
2023/07/14 11:41:03;;;;;;;4.65;3.05;;;;;;;23.64;59.99;101527.72;6063430;29;20233;-67
2023/07/14 11:44:25;;;;;;;3.58;2.90;;;;;;;24.04;59.48;101514.97;6052409;29;20353;-67
2023/07/14 11:47:47;;;;;;;3.13;2.28;;;;;;;24.20;58.74;101520.13;6056063;29;20240;-67
2023/07/14 11:51:10;;;;;;;4.60;2.20;;;;;;;24.22;58.17;101512.50;6060732;29;20646;-69
2023/07/14 11:54:42;;;;;;;5.45;2.50;;;;;;;24.72;57.82;101516.53;6058673;29;20246;-65
2023/07/14 11:58:16;;;;;;;2.20;2.00;;;;;;;25.08;57.23;101497.63;6056734;29;20224;-68
2023/07/14 12:01:46;;;;;;;2.83;2.33;;;;;;;24.75;57.39;101500.44;6061367;29;22496;-68
2023/07/14 12:05:32;;;;;;;3.13;2.30;;;;;;;25.19;57.89;101483.16;6055733;29;20505;-69
2023/07/14 12:09:13;;;;;;;4.22;2.95;;;;;;;25.01;56.34;101471.97;6064543;29;20228;-65
2023/07/14 12:12:35;;;;;;;2.25;2.03;;;;;;;25.97;55.71;101476.47;6066248;29;20232;-66
2023/07/14 12:16:18;;;;;;;2.70;2.42;;;;;;;26.08;54.99;101475.78;6061608;29;20240;-66
2023/07/14 12:19:52;;;;;;;3.17;2.65;;;;;;;25.36;56.32;101465.06;6054783;29;20233;-65
2023/07/14 12:23:22;;;;;;;3.63;2.67;;;;;;;24.79;56.61;101467.75;6056799;29;20232;-68
2023/07/14 12:26:50;;;;;;;1.50;1.38;;;;;;;24.62;57.25;101464.56;6057797;29;20236;-66
2023/07/14 12:30:18;;;;;;;3.70;2.50;;;;;;;24.23;57.57;101459.03;6061855;29;20236;-67
2023/07/14 12:33:41;;;;;;;4.20;2.35;;;;;;;24.32;57.33;101466.06;6061028;29;20239;-67
2023/07/14 12:37:02;;;;;;;3.35;2.13;;;;;;;23.87;58.03;101455.78;6053932;29;20599;-67
2023/07/14 12:40:25;;;;;;;2.50;2.10;;;;;;;23.48;58.68;101454.63;6069563;29;20245;-67
2023/07/14 12:43:49;;;;;;;3.88;2.53;;;;;;;23.78;58.32;101453.22;6063032;29;20237;-68
2023/07/14 12:47:15;;;;;;;3.22;2.00;;;;;;;24.07;58.57;101442.94;6054744;29;20233;-67
2023/07/14 12:50:40;;;;;;;3.60;2.72;;;;;;;24.26;57.89;101442.09;6057318;29;20246;-67
2023/07/14 12:54:04;;;;;;;4.15;2.92;;;;;;;24.39;57.83;101433.81;6066757;29;20236;-65
2023/07/14 12:57:25;;;;;;;5.30;2.60;;;;;;;23.41;58.06;101437.22;6024331;29;20238;-67
2023/07/14 13:00:46;;;;;;;3.53;2.75;;;;;;;23.08;58.67;101430.69;6065281;29;20237;-67
2023/07/14 13:04:10;;;;;;;2.78;2.58;;;;;;;23.28;59.09;101430.81;6058709;29;20363;-66
2023/07/14 13:07:33;;;;;;;2.30;2.10;;;;;;;23.11;59.46;101424.78;6050156;29;20225;-65
2023/07/14 13:10:55;;;;;;;3.88;2.45;;;;;;;23.46;59.32;101420.94;6056345;29;20237;-64
2023/07/14 13:14:20;;;;;;;4.00;2.83;;;;;;;23.78;60.19;101427.59;6063468;29;20253;-67
2023/07/14 13:17:41;;;;;;;4.10;2.97;;;;;;;23.79;58.87;101421.03;6063377;29;20264;-65
2023/07/14 13:21:25;;;;;;;3.70;2.55;;;;;;;23.69;58.90;101420.59;6064049;29;20324;-65
2023/07/14 13:24:59;;;;;;;2.20;2.00;;;;;;;23.65;58.39;101414.66;6059380;29;20647;-65
2023/07/14 13:28:28;;;;;;;3.03;2.72;;;;;;;24.31;57.50;101412.84;6064502;29;20239;-65
2023/07/14 13:31:54;;;;;;;3.00;1.70;;;;;;;24.73;56.89;101407.88;6045876;29;20244;-62
2023/07/14 13:35:22;;;;;;;7.22;2.42;;;;;;;24.66;55.73;101410.66;6072632;29;20237;-65
2023/07/14 13:38:43;;;;;;;2.33;2.13;;;;;;;24.39;57.18;101397.97;6060852;29;20243;-64
2023/07/14 13:42:18;;;;;;;3.25;2.47;;;;;;;24.95;56.29;101396.41;6057989;29;20604;-64
2023/07/14 13:45:42;;;;;;;2.58;2.20;;;;;;;24.51;56.30;101396.28;6045158;29;20616;-65
2023/07/14 13:49:06;;;;;;;3.45;2.47;;;;;;;24.97;55.16;101387.94;6041441;29;20241;-66
2023/07/14 13:52:31;;;;;;;2.67;2.47;;;;;;;26.82;52.48;101385.34;6057094;29;20870;-65
2023/07/14 13:55:53;;;;;;;3.03;2.30;;;;;;;25.91;52.30;101381.47;6063827;29;20252;-64
2023/07/14 13:59:18;;;;;;;5.45;3.53;;;;;;;25.43;52.91;101376.69;6038299;29;20234;-65
2023/07/14 14:02:43;;;;;;;3.45;2.53;;;;;;;25.36;53.32;101376.69;6058272;29;20361;-64
2023/07/14 14:06:04;;;;;;;5.05;3.40;;;;;;;25.43;52.72;101363.72;6049989;29;20228;-65
2023/07/14 14:09:25;;;;;;;8.82;4.95;;;;;;;25.83;52.43;101358.78;6049522;29;20623;-63
2023/07/14 14:12:46;;;;;;;5.32;3.08;;;;;;;25.83;51.28;101356.00;6059177;29;20229;-64
2023/07/14 14:16:16;;;;;;;4.43;3.40;;;;;;;26.72;50.82;101342.69;6064608;29;20241;-66
2023/07/14 14:19:38;;;;;;;2.97;2.60;;;;;;;25.83;51.69;101344.97;6061591;29;20286;-64
2023/07/14 14:23:04;;;;;;;4.00;2.67;;;;;;;25.00;52.22;101344.19;6064792;29;20229;-65
2023/07/14 14:26:25;;;;;;;6.35;3.67;;;;;;;25.08;52.30;101335.63;6063938;29;20233;-64
2023/07/14 14:29:46;;;;;;;2.75;2.55;;;;;;;24.85;52.37;101337.22;6054913;29;20550;-66
2023/07/14 14:33:13;;;;;;;2.70;2.47;;;;;;;24.91;51.92;101334.44;6064899;29;25567;-66
2023/07/14 14:36:34;;;;;;;3.35;3.05;;;;;;;24.69;52.97;101326.66;6059903;29;20519;-66
2023/07/14 14:39:55;;;;;;;3.47;2.10;;;;;;;24.68;52.27;101325.78;6060057;29;21067;-66
2023/07/14 14:43:18;;;;;;;2.92;2.00;;;;;;;24.64;52.91;101315.44;6051807;29;20498;-66
2023/07/14 14:46:39;;;;;;;2.60;2.40;;;;;;;24.38;53.27;101311.69;6059353;29;20616;-66
2023/07/14 14:50:01;;;;;;;5.88;5.03;;;;;;;24.82;53.05;101310.94;6051929;29;20234;-66
2023/07/14 14:53:24;;;;;;;2.40;2.05;;;;;;;24.80;52.65;101304.81;6052846;29;20601;-66
2023/07/14 14:56:45;;;;;;;3.03;2.67;;;;;;;25.04;53.17;101303.19;6057803;29;20238;-66
2023/07/14 15:00:16;;;;;;;3.22;2.88;;;;;;;25.23;52.54;101296.72;6060475;29;20233;-65
2023/07/14 15:03:38;;;;;;;4.82;2.95;;;;;;;26.11;51.39;101287.34;6048844;29;20241;-66
2023/07/14 15:07:02;;;;;;;4.28;2.25;;;;;;;25.67;51.34;101285.59;6059669;29;20332;-65
2023/07/14 15:10:27;;;;;;;6.97;4.47;;;;;;;25.62;51.25;101288.19;6051328;29;20229;-66
2023/07/14 15:13:48;;;;;;;2.45;1.98;;;;;;;25.36;52.17;101288.34;6054773;29;20257;-66
2023/07/14 15:17:24;;;;;;;8.63;6.28;;;;;;;25.41;52.35;101283.03;6052748;29;20253;-66
2023/07/14 15:20:44;;;;;;;2.67;2.45;;;;;;;24.90;52.90;101282.25;6052295;29;20237;-65
2023/07/14 15:24:07;;;;;;;4.20;2.25;;;;;;;24.97;53.95;101280.31;6046830;29;20335;-66
2023/07/14 15:27:31;;;;;;;3.25;2.55;;;;;;;25.03;53.50;101274.72;6032399;29;20244;-65
2023/07/14 15:30:52;;;;;;;2.90;2.15;;;;;;;25.49;53.09;101268.97;6043522;29;20245;-65
2023/07/14 15:34:14;;;;;;;3.58;2.45;;;;;;;26.32;51.07;101253.75;6048926;29;20245;-65
2023/07/14 15:37:35;;;;;;;3.83;2.22;;;;;;;25.38;52.10;101251.16;6054708;29;20679;-65
2023/07/14 15:40:57;;;;;;;3.35;2.17;;;;;;;25.49;52.89;101244.13;6053704;29;20265;-66
2023/07/14 15:44:21;;;;;;;3.38;2.40;;;;;;;25.99;51.44;101245.75;6045595;29;20715;-65
2023/07/14 15:47:42;;;;;;;5.70;2.38;;;;;;;25.63;51.80;101239.31;6043091;29;20233;-66